Time;durP1;ratioP1;P1;durP2;ratioP2;P2;SDS_P1;SDS_P2;PMS_P1;PMS_P2;Temp;Humidity;BMP_temperature;BMP_pressure;BME280_temperature;BME280_humidity;BME280_pressure;Samples;Min_cycle;Max_cycle;Signal;HPM_P1;HPM_P2
2022/07/09 00:00:47;;;;;;;15.75;10.23;;;16.30;99.90;;;;;;5040823;28;20252;-73
2022/07/09 00:03:13;;;;;;;16.58;8.68;;;16.20;99.90;;;;;;5051110;28;20304;-75
2022/07/09 00:05:41;;;;;;;20.38;9.38;;;16.20;99.90;;;;;;5052206;28;20202;-74
2022/07/09 00:08:08;;;;;;;18.80;8.98;;;16.10;99.90;;;;;;5058808;28;20248;-76
2022/07/09 00:10:36;;;;;;;17.20;10.32;;;16.00;99.90;;;;;;5048252;28;20283;-75
2022/07/09 00:13:03;;;;;;;12.18;9.70;;;16.00;99.90;;;;;;5050828;28;20225;-74
2022/07/09 00:15:30;;;;;;;15.27;10.65;;;15.90;99.90;;;;;;5058753;28;20204;-74
2022/07/09 00:17:57;;;;;;;17.40;9.95;;;15.90;99.90;;;;;;5051852;28;20242;-76
2022/07/09 00:20:25;;;;;;;13.15;8.45;;;15.90;99.90;;;;;;5058490;28;20193;-75
2022/07/09 00:22:51;;;;;;;24.10;11.13;;;15.90;99.90;;;;;;5053009;28;20224;-74
2022/07/09 00:25:18;;;;;;;14.93;10.25;;;15.90;99.90;;;;;;5065796;28;20206;-75
2022/07/09 00:27:47;;;;;;;15.50;9.18;;;15.90;99.90;;;;;;5064217;28;20588;-75
2022/07/09 00:30:14;;;;;;;17.88;9.27;;;15.90;99.90;;;;;;5046405;28;20225;-75
2022/07/09 00:32:40;;;;;;;13.13;9.27;;;15.90;99.90;;;;;;5052778;28;20227;-74
2022/07/09 00:35:08;;;;;;;14.50;8.30;;;16.00;99.90;;;;;;5053052;28;20680;-75
2022/07/09 00:37:35;;;;;;;12.00;9.20;;;15.90;99.90;;;;;;5046404;28;20203;-75
2022/07/09 00:40:02;;;;;;;14.75;9.20;;;15.90;99.90;;;;;;5046827;28;20250;-74
2022/07/09 00:42:42;;;;;;;18.92;8.32;;;15.90;99.90;;;;;;5048999;28;20307;-76
2022/07/09 00:45:11;;;;;;;17.70;9.23;;;15.80;99.90;;;;;;5066808;28;20204;-74
2022/07/09 00:47:38;;;;;;;11.50;8.07;;;15.90;99.90;;;;;;5055979;28;20555;-73
2022/07/09 00:50:06;;;;;;;11.90;7.43;;;15.90;99.90;;;;;;5049747;28;20238;-75
2022/07/09 00:52:36;;;;;;;10.55;8.60;;;15.90;99.90;;;;;;5038447;28;20259;-75
2022/07/09 00:55:04;;;;;;;16.67;7.35;;;16.00;99.90;;;;;;5045630;28;20288;-75
2022/07/09 00:57:32;;;;;;;11.50;7.55;;;16.10;99.90;;;;;;5045046;28;20220;-75
2022/07/09 01:00:00;;;;;;;10.80;7.85;;;16.10;99.90;;;;;;5038795;28;20201;-75
2022/07/09 01:02:28;;;;;;;9.97;7.27;;;16.20;99.90;;;;;;5049400;28;20220;-74
2022/07/09 01:04:55;;;;;;;8.18;7.18;;;16.10;99.90;;;;;;5040019;28;21024;-76
2022/07/09 01:07:22;;;;;;;10.63;7.35;;;16.10;99.90;;;;;;5059662;28;20212;-76
2022/07/09 01:09:49;;;;;;;14.10;7.73;;;16.10;99.90;;;;;;5061760;28;20246;-73
2022/07/09 01:12:17;;;;;;;13.20;6.32;;;16.20;99.90;;;;;;5059542;28;20507;-75
2022/07/09 01:14:45;;;;;;;10.45;7.65;;;16.10;99.90;;;;;;5046133;28;20200;-74
2022/07/09 01:17:13;;;;;;;12.00;7.80;;;16.10;99.90;;;;;;5042229;28;20238;-73
2022/07/09 01:19:41;;;;;;;9.25;7.50;;;16.10;99.90;;;;;;5045096;28;20564;-75
2022/07/09 01:22:10;;;;;;;9.90;7.60;;;16.10;99.90;;;;;;5040327;28;20200;-75
2022/07/09 01:24:37;;;;;;;9.32;6.82;;;16.00;99.90;;;;;;5046078;28;20561;-75
2022/07/09 01:27:04;;;;;;;11.82;7.45;;;16.10;99.90;;;;;;5047343;28;20208;-75
2022/07/09 01:29:31;;;;;;;8.93;7.55;;;16.00;99.90;;;;;;5052977;28;20220;-75
2022/07/09 01:31:58;;;;;;;10.55;7.38;;;15.90;99.90;;;;;;5052785;28;20615;-74
2022/07/09 01:34:25;;;;;;;14.63;8.43;;;15.90;99.90;;;;;;5036485;28;20289;-74
2022/07/09 01:36:52;;;;;;;11.00;7.07;;;15.90;99.90;;;;;;5041151;28;20583;-72
2022/07/09 01:39:21;;;;;;;17.27;7.10;;;15.80;99.90;;;;;;5045377;28;20232;-74
2022/07/09 01:41:47;;;;;;;10.57;7.47;;;15.80;99.90;;;;;;5040813;28;20553;-75
2022/07/09 01:44:14;;;;;;;12.20;8.48;;;15.70;99.90;;;;;;5038380;28;20308;-75
2022/07/09 01:46:41;;;;;;;12.05;8.15;;;15.70;99.90;;;;;;5045433;28;20299;-74
2022/07/09 01:49:08;;;;;;;13.20;8.60;;;15.80;99.90;;;;;;5041881;28;20656;-74
2022/07/09 01:51:35;;;;;;;12.90;8.80;;;15.70;99.90;;;;;;5049433;28;20208;-75
2022/07/09 01:54:03;;;;;;;9.35;7.93;;;15.80;99.90;;;;;;5053307;28;20227;-73
2022/07/09 01:56:32;;;;;;;13.13;8.68;;;15.70;99.90;;;;;;5053192;28;20288;-73
2022/07/09 01:58:59;;;;;;;21.80;16.23;;;15.80;99.90;;;;;;5044723;28;20675;-76
2022/07/09 02:01:26;;;;;;;12.30;8.33;;;15.80;99.90;;;;;;5044270;28;20220;-75
2022/07/09 02:03:54;;;;;;;12.25;8.27;;;15.80;99.90;;;;;;5049566;28;20470;-76
2022/07/09 02:06:21;;;;;;;18.38;9.10;;;15.80;99.90;;;;;;5041672;28;20205;-75
2022/07/09 02:08:48;;;;;;;13.05;9.82;;;15.80;99.90;;;;;;5043036;28;20619;-76
2022/07/09 02:11:15;;;;;;;13.53;8.67;;;15.90;99.90;;;;;;5051780;28;20240;-75
2022/07/09 02:13:43;;;;;;;11.57;8.30;;;15.90;99.90;;;;;;5046369;28;20499;-74
2022/07/09 02:16:10;;;;;;;16.33;8.95;;;15.90;99.90;;;;;;5043800;28;20211;-75
2022/07/09 02:18:37;;;;;;;11.70;9.27;;;15.90;99.90;;;;;;5048185;28;20206;-73
2022/07/09 02:21:04;;;;;;;12.88;7.85;;;15.90;99.90;;;;;;5049073;28;20215;-75
2022/07/09 02:26:53;;;;;;;12.05;7.47;;;15.80;99.90;;;;;;5048718;28;20337;-74
2022/07/09 02:29:22;;;;;;;9.35;7.22;;;15.80;99.90;;;;;;5053378;28;20709;-76
2022/07/09 02:31:49;;;;;;;12.10;8.10;;;15.90;99.90;;;;;;5051282;28;20753;-75
2022/07/09 02:34:16;;;;;;;10.98;8.32;;;15.90;99.90;;;;;;5043619;28;20632;-76
2022/07/09 02:36:48;;;;;;;9.45;8.25;;;15.90;99.90;;;;;;5047118;28;20655;-74
2022/07/09 02:39:15;;;;;;;13.15;7.72;;;16.00;99.90;;;;;;5047296;28;20275;-74
2022/07/09 02:41:43;;;;;;;14.23;8.38;;;16.00;99.90;;;;;;5061853;28;20288;-75
2022/07/09 02:44:12;;;;;;;10.85;7.47;;;16.00;99.90;;;;;;5065422;28;20223;-75
2022/07/09 02:46:40;;;;;;;13.50;8.10;;;16.00;99.90;;;;;;5048815;28;20288;-75
2022/07/09 02:49:07;;;;;;;10.00;7.88;;;16.00;99.90;;;;;;5055412;28;20232;-75
2022/07/09 02:51:41;;;;;;;13.88;9.10;;;15.90;99.90;;;;;;5056448;28;20287;-73
2022/07/09 02:54:08;;;;;;;13.52;8.98;;;15.80;99.90;;;;;;5056822;28;20306;-74
2022/07/09 02:56:35;;;;;;;11.95;8.68;;;15.80;99.90;;;;;;5049497;28;20207;-75
2022/07/09 02:59:02;;;;;;;11.15;9.48;;;15.80;99.90;;;;;;5051777;28;20273;-75
2022/07/09 03:01:43;;;;;;;8.45;7.45;;;15.80;99.90;;;;;;5049269;28;20231;-75
2022/07/09 03:04:19;;;;;;;24.15;8.70;;;15.80;99.90;;;;;;5057612;28;20269;-74
2022/07/09 03:06:46;;;;;;;13.65;8.82;;;15.90;99.90;;;;;;5044668;28;20207;-75
2022/07/09 03:09:13;;;;;;;13.05;9.05;;;15.90;99.90;;;;;;5047381;28;20196;-75
2022/07/09 03:12:20;;;;;;;14.93;8.77;;;15.80;99.90;;;;;;5056503;28;20199;-75
2022/07/09 03:14:47;;;;;;;13.30;8.70;;;15.80;99.90;;;;;;5056254;28;20199;-75
2022/07/09 03:17:15;;;;;;;15.10;8.55;;;15.80;99.90;;;;;;5048409;28;20319;-75
2022/07/09 03:19:42;;;;;;;16.42;8.40;;;15.80;99.90;;;;;;5056399;28;20732;-74
2022/07/09 03:22:09;;;;;;;13.30;8.50;;;15.80;99.90;;;;;;5052727;28;20244;-75
2022/07/09 03:24:36;;;;;;;16.40;10.20;;;15.90;99.90;;;;;;5058287;28;20253;-75
2022/07/09 03:27:03;;;;;;;17.48;10.10;;;15.80;99.90;;;;;;5060255;28;20201;-75
2022/07/09 03:29:30;;;;;;;13.60;9.00;;;15.90;99.90;;;;;;5064323;28;20303;-75
2022/07/09 03:31:57;;;;;;;12.05;8.95;;;15.80;99.90;;;;;;5061853;28;20208;-75
2022/07/09 03:34:26;;;;;;;12.18;8.93;;;15.90;99.90;;;;;;5062007;28;20227;-74
2022/07/09 03:36:53;;;;;;;13.75;9.43;;;15.90;99.90;;;;;;5065766;28;20262;-73
2022/07/09 03:39:21;;;;;;;12.75;8.90;;;15.90;99.90;;;;;;5056416;28;20200;-75
2022/07/09 03:41:48;;;;;;;13.05;9.73;;;15.90;99.90;;;;;;5050218;28;20240;-75
2022/07/09 03:44:15;;;;;;;11.52;8.20;;;15.90;99.90;;;;;;5040581;28;20604;-75
2022/07/09 03:46:42;;;;;;;17.38;10.07;;;15.90;99.90;;;;;;5042549;28;20253;-76
2022/07/09 03:49:09;;;;;;;17.03;10.67;;;15.90;99.90;;;;;;5047567;28;20294;-75
2022/07/09 03:51:37;;;;;;;17.38;10.77;;;15.90;99.90;;;;;;5050624;28;20455;-73
2022/07/09 03:54:04;;;;;;;18.98;11.35;;;16.00;99.90;;;;;;5047404;28;20318;-74
2022/07/09 03:56:31;;;;;;;15.05;10.00;;;16.00;99.90;;;;;;5037902;28;20260;-73
2022/07/09 03:58:58;;;;;;;12.70;10.73;;;16.00;99.90;;;;;;5044384;28;20266;-74
2022/07/09 04:01:25;;;;;;;11.90;10.30;;;16.10;99.90;;;;;;5044824;28;20457;-74
2022/07/09 04:03:52;;;;;;;11.63;10.30;;;16.20;99.90;;;;;;5042541;28;20227;-73
2022/07/09 04:06:20;;;;;;;11.68;8.75;;;16.30;99.90;;;;;;5054886;28;20218;-75
2022/07/09 04:08:48;;;;;;;12.43;10.20;;;16.40;99.90;;;;;;5050173;28;20205;-74
2022/07/09 04:11:15;;;;;;;14.95;10.23;;;16.50;99.90;;;;;;5050155;28;20578;-74
2022/07/09 04:13:43;;;;;;;14.97;10.07;;;16.60;99.90;;;;;;5045600;28;20238;-74
2022/07/09 04:16:10;;;;;;;17.70;11.40;;;16.80;99.90;;;;;;5047839;28;20447;-74
2022/07/09 04:18:42;;;;;;;16.20;10.80;;;16.80;99.90;;;;;;5054596;28;20213;-73
2022/07/09 04:21:09;;;;;;;15.97;10.70;;;16.90;99.90;;;;;;5062162;28;20953;-74
2022/07/09 04:23:36;;;;;;;13.97;10.80;;;16.90;99.90;;;;;;5047564;28;20487;-74
2022/07/09 04:26:05;;;;;;;15.30;11.30;;;16.90;99.90;;;;;;5052340;28;20461;-74
2022/07/09 04:28:32;;;;;;;14.77;11.30;;;16.90;99.90;;;;;;5042527;28;20568;-74
2022/07/09 04:30:59;;;;;;;13.23;10.77;;;16.80;99.90;;;;;;5046651;28;20477;-74
2022/07/09 04:33:26;;;;;;;16.80;12.67;;;16.80;99.90;;;;;;5046080;28;20500;-75
2022/07/09 04:35:53;;;;;;;19.90;11.67;;;16.80;99.90;;;;;;5040072;28;20962;-73
2022/07/09 04:38:20;;;;;;;17.93;12.63;;;16.80;99.90;;;;;;5044265;28;20450;-74
2022/07/09 04:40:47;;;;;;;15.17;11.00;;;16.90;99.90;;;;;;5039092;28;20539;-74
2022/07/09 04:43:15;;;;;;;22.33;12.07;;;17.00;99.90;;;;;;5051790;28;20469;-75
2022/07/09 04:45:42;;;;;;;14.03;10.50;;;17.00;99.90;;;;;;5056133;28;20452;-74
2022/07/09 04:48:09;;;;;;;14.38;10.52;;;17.10;99.90;;;;;;5054334;28;20506;-75
2022/07/09 04:50:36;;;;;;;14.13;10.67;;;17.10;99.90;;;;;;5053194;28;20279;-75
2022/07/09 04:53:03;;;;;;;14.60;11.17;;;17.20;99.90;;;;;;5051704;28;20508;-76
2022/07/09 04:55:31;;;;;;;11.63;10.43;;;17.20;99.90;;;;;;5049491;28;20532;-73
2022/07/09 04:57:58;;;;;;;15.87;11.40;;;17.20;99.90;;;;;;5043291;28;20474;-73
2022/07/09 05:00:28;;;;;;;17.40;11.63;;;17.20;99.90;;;;;;5048665;28;20533;-75
2022/07/09 05:02:55;;;;;;;14.10;10.40;;;17.20;99.90;;;;;;5043831;28;20561;-76
2022/07/09 05:05:23;;;;;;;16.73;13.00;;;17.20;99.90;;;;;;5043340;28;21032;-75
2022/07/09 05:07:50;;;;;;;17.83;10.90;;;17.30;99.90;;;;;;5042425;28;20465;-75
2022/07/09 05:10:17;;;;;;;21.00;13.27;;;17.40;99.90;;;;;;5039073;28;20565;-73
2022/07/09 05:12:44;;;;;;;13.63;12.20;;;17.40;99.90;;;;;;5046360;28;20476;-75
2022/07/09 05:15:11;;;;;;;18.17;11.80;;;17.40;99.90;;;;;;5052127;28;20506;-75
2022/07/09 05:17:40;;;;;;;20.37;13.10;;;17.40;99.90;;;;;;5046122;28;20533;-73
2022/07/09 05:20:10;;;;;;;13.43;10.13;;;17.40;99.90;;;;;;5046872;28;20449;-73
2022/07/09 05:22:38;;;;;;;16.63;12.50;;;17.50;99.90;;;;;;5052021;28;20473;-74
2022/07/09 05:25:07;;;;;;;13.13;10.00;;;17.50;99.90;;;;;;5056041;28;20449;-74
2022/07/09 05:27:41;;;;;;;13.50;11.10;;;17.50;99.90;;;;;;5044941;28;21049;-74
2022/07/09 05:30:09;;;;;;;15.00;12.20;;;17.40;99.90;;;;;;5045401;28;20558;-76
2022/07/09 05:32:39;;;;;;;16.73;12.40;;;17.30;99.90;;;;;;5052107;28;20477;-75
2022/07/09 05:35:07;;;;;;;18.53;11.47;;;17.30;99.90;;;;;;5044377;28;20517;-75
2022/07/09 05:37:34;;;;;;;21.73;12.00;;;17.30;99.90;;;;;;5051094;28;20447;-76
2022/07/09 05:40:05;;;;;;;12.80;11.33;;;17.20;99.90;;;;;;5044004;28;20859;-75
2022/07/09 05:42:32;;;;;;;13.73;10.47;;;17.30;99.90;;;;;;5041865;28;20506;-76
2022/07/09 05:44:59;;;;;;;14.43;13.03;;;17.40;99.90;;;;;;5046437;28;20541;-76
2022/07/09 05:47:26;;;;;;;18.30;10.57;;;17.50;99.90;;;;;;5043542;28;20557;-74
2022/07/09 05:49:54;;;;;;;13.73;10.00;;;17.50;99.90;;;;;;5046882;28;20947;-75
2022/07/09 05:52:21;;;;;;;13.00;11.70;;;17.60;99.90;;;;;;5044387;28;20990;-75
2022/07/09 05:54:48;;;;;;;15.00;11.40;;;17.60;99.90;;;;;;5037635;28;20447;-75
2022/07/09 05:57:16;;;;;;;12.73;10.63;;;17.70;99.90;;;;;;5042040;28;20544;-74
2022/07/09 05:59:43;;;;;;;20.47;12.00;;;17.70;99.90;;;;;;5039652;28;20516;-74
2022/07/09 06:02:10;;;;;;;13.33;11.13;;;17.60;99.90;;;;;;5047984;28;20481;-74
2022/07/09 06:04:37;;;;;;;12.43;11.23;;;17.70;99.90;;;;;;5038953;28;20929;-77
2022/07/09 06:07:06;;;;;;;14.10;11.40;;;17.80;99.90;;;;;;5037986;28;20802;-76
2022/07/09 06:09:33;;;;;;;9.43;8.43;;;18.00;99.90;;;;;;5038675;28;20472;-74
2022/07/09 06:12:00;;;;;;;12.57;10.40;;;18.10;99.90;;;;;;5040414;28;20521;-75
2022/07/09 06:14:27;;;;;;;11.30;9.47;;;18.20;99.90;;;;;;5056060;28;20502;-75
2022/07/09 06:16:55;;;;;;;14.87;9.50;;;18.30;99.90;;;;;;5052358;28;20463;-74
2022/07/09 06:19:22;;;;;;;17.73;10.50;;;18.20;99.90;;;;;;5045113;28;20449;-74
2022/07/09 06:21:49;;;;;;;19.70;9.33;;;18.30;99.90;;;;;;5054733;28;20431;-74
2022/07/09 06:24:17;;;;;;;15.53;9.43;;;18.40;99.90;;;;;;5044320;28;20462;-75
2022/07/09 06:26:46;;;;;;;9.40;8.37;;;18.40;99.90;;;;;;5049181;28;20507;-76
2022/07/09 06:29:13;;;;;;;10.93;8.57;;;18.50;99.90;;;;;;5051112;28;20486;-75
2022/07/09 06:31:40;;;;;;;11.93;8.27;;;18.60;99.90;;;;;;5059236;28;20506;-76
2022/07/09 06:34:07;;;;;;;9.90;7.50;;;18.70;99.90;;;;;;5045069;28;20475;-75
2022/07/09 06:36:35;;;;;;;8.83;7.83;;;18.60;99.90;;;;;;5054690;28;20466;-72
2022/07/09 06:41:48;;;;;;;7.63;6.93;;;18.70;99.90;;;;;;5060098;28;20412;-75
2022/07/09 06:44:16;;;;;;;9.80;6.80;;;18.80;99.90;;;;;;5061982;28;20500;-74
2022/07/09 06:46:43;;;;;;;8.60;7.23;;;18.80;99.90;;;;;;5053542;28;20976;-74
2022/07/09 06:49:09;;;;;;;7.70;6.53;;;18.70;99.90;;;;;;5059097;28;20444;-74
2022/07/09 06:51:37;;;;;;;10.67;6.77;;;18.90;99.90;;;;;;5045119;28;20486;-74
2022/07/09 06:54:04;;;;;;;12.80;6.60;;;19.00;99.90;;;;;;5044290;28;20470;-72
2022/07/09 06:56:34;;;;;;;10.73;6.93;;;19.00;99.90;;;;;;5049144;28;20527;-75
2022/07/09 06:59:03;;;;;;;8.20;7.03;;;19.00;99.90;;;;;;5056561;28;20497;-75
2022/07/09 07:01:30;;;;;;;9.10;6.90;;;19.10;99.90;;;;;;5052668;28;20517;-75
2022/07/09 07:03:56;;;;;;;7.47;6.63;;;19.10;99.90;;;;;;5048372;28;20473;-74
2022/07/09 07:06:23;;;;;;;12.67;7.73;;;19.10;99.90;;;;;;5058285;28;20886;-75
2022/07/09 07:08:50;;;;;;;8.10;6.20;;;19.10;99.90;;;;;;5051632;28;20490;-77
2022/07/09 07:11:18;;;;;;;14.17;7.33;;;19.20;99.90;;;;;;5050090;28;20496;-74
2022/07/09 07:13:45;;;;;;;11.10;7.77;;;19.30;99.90;;;;;;5044902;28;20502;-75
2022/07/09 07:16:14;;;;;;;7.47;6.77;;;19.30;99.90;;;;;;5053211;28;20442;-75
2022/07/09 07:18:41;;;;;;;10.83;5.60;;;19.30;99.90;;;;;;5049725;28;20528;-74
2022/07/09 07:21:08;;;;;;;8.73;5.60;;;19.50;99.90;;;;;;5054237;28;20477;-75
2022/07/09 07:23:35;;;;;;;9.70;5.30;;;19.60;99.90;;;;;;5058589;28;21032;-76
2022/07/09 07:26:02;;;;;;;7.00;4.90;;;19.60;99.90;;;;;;5051541;28;20881;-75
2022/07/09 07:28:29;;;;;;;8.87;6.20;;;19.70;99.90;;;;;;5055780;28;20495;-75
2022/07/09 07:30:56;;;;;;;6.60;5.80;;;19.90;99.90;;;;;;5054794;28;20508;-74
2022/07/09 07:33:24;;;;;;;8.23;5.20;;;20.10;99.90;;;;;;5042567;28;20474;-74
2022/07/09 07:35:51;;;;;;;7.28;6.03;;;20.30;99.90;;;;;;5048020;28;20913;-75
2022/07/09 07:38:18;;;;;;;8.03;5.50;;;20.50;99.90;;;;;;5047892;28;20215;-75
2022/07/09 07:40:45;;;;;;;6.07;4.67;;;20.70;99.90;;;;;;5045215;28;20853;-76
2022/07/09 07:43:12;;;;;;;13.70;6.93;;;20.80;99.90;;;;;;5051956;28;20891;-75
2022/07/09 07:45:39;;;;;;;7.30;4.63;;;21.00;99.90;;;;;;5047219;28;20484;-77
2022/07/09 07:48:07;;;;;;;5.57;4.47;;;21.00;99.90;;;;;;5052907;28;20444;-77
2022/07/09 07:50:38;;;;;;;5.73;4.80;;;21.00;99.90;;;;;;5051492;28;20439;-77
2022/07/09 07:53:06;;;;;;;6.57;4.53;;;20.80;99.90;;;;;;5050038;28;20473;-76
2022/07/09 07:55:33;;;;;;;8.90;4.23;;;20.80;99.90;;;;;;5054367;28;20488;-76
2022/07/09 07:58:00;;;;;;;5.97;4.60;;;20.80;99.90;;;;;;5044619;28;20569;-74
2022/07/09 08:00:27;;;;;;;9.17;4.77;;;20.80;99.90;;;;;;5057717;28;20452;-76
2022/07/09 08:02:54;;;;;;;6.40;3.40;;;20.80;99.90;;;;;;5064305;28;20466;-75
2022/07/09 08:05:21;;;;;;;8.30;4.10;;;20.90;99.90;;;;;;5068540;28;20482;-75
2022/07/09 08:07:50;;;;;;;4.10;3.70;;;21.10;99.90;;;;;;5048299;28;20984;-77
2022/07/09 08:10:17;;;;;;;9.40;3.60;;;21.10;99.90;;;;;;5047922;28;20539;-76
2022/07/09 08:12:44;;;;;;;4.47;3.83;;;21.20;99.90;;;;;;5053793;28;21006;-76
2022/07/09 08:15:11;;;;;;;5.23;3.70;;;21.30;99.90;;;;;;5047259;28;20475;-76
2022/07/09 08:17:38;;;;;;;6.60;3.70;;;21.30;99.90;;;;;;5043837;28;20454;-76
2022/07/09 08:20:06;;;;;;;4.57;2.73;;;21.30;99.90;;;;;;5052503;28;20536;-76
2022/07/09 08:22:34;;;;;;;5.50;2.90;;;21.50;99.90;;;;;;5044005;28;21010;-75
2022/07/09 08:25:02;;;;;;;8.63;3.50;;;21.50;99.90;;;;;;5049729;28;20440;-75
2022/07/09 08:27:29;;;;;;;5.60;3.27;;;21.40;99.90;;;;;;5044021;28;20474;-75
2022/07/09 08:29:56;;;;;;;3.27;2.40;;;21.30;99.90;;;;;;5045177;28;20521;-73
2022/07/09 08:32:23;;;;;;;4.33;3.93;;;21.30;99.90;;;;;;5047521;28;20562;-77
2022/07/09 08:34:50;;;;;;;4.37;3.30;;;21.50;99.90;;;;;;5048293;28;21015;-75
2022/07/09 08:37:17;;;;;;;5.13;2.30;;;22.00;99.90;;;;;;5054723;28;20482;-74
2022/07/09 08:39:44;;;;;;;2.67;2.20;;;23.20;99.90;;;;;;5048661;28;20938;-76
2022/07/09 08:42:12;;;;;;;4.33;2.60;;;24.20;99.90;;;;;;5049434;28;20450;-77
2022/07/09 08:44:55;;;;;;;5.23;3.60;;;24.50;99.90;;;;;;5056005;28;20426;-75
2022/07/09 08:47:23;;;;;;;2.30;2.10;;;24.90;99.90;;;;;;5039901;28;20510;-76
2022/07/09 08:49:55;;;;;;;3.90;1.93;;;25.90;99.90;;;;;;5049621;28;20458;-76
2022/07/09 08:52:29;;;;;;;2.17;1.77;;;26.50;98.40;;;;;;5035505;28;20467;-75
2022/07/09 08:54:56;;;;;;;3.30;2.60;;;26.40;97.00;;;;;;5050167;28;20477;-74
2022/07/09 08:57:24;;;;;;;4.40;2.80;;;25.80;97.50;;;;;;5041212;28;20462;-77
2022/07/09 08:59:51;;;;;;;4.30;2.60;;;25.10;99.40;;;;;;5052764;28;20434;-75
2022/07/09 09:02:20;;;;;;;5.17;2.70;;;24.90;99.90;;;;;;5052870;28;20798;-76
2022/07/09 09:04:47;;;;;;;3.57;2.40;;;25.50;99.20;;;;;;5054188;28;20454;-76
2022/07/09 09:07:16;;;;;;;3.10;2.00;;;26.30;97.30;;;;;;5043318;28;20470;-75
2022/07/09 09:09:44;;;;;;;5.50;2.00;;;27.10;94.40;;;;;;5047716;28;20480;-78
2022/07/09 09:12:13;;;;;;;2.20;1.63;;;27.50;92.40;;;;;;5045687;28;20473;-74
2022/07/09 09:14:49;;;;;;;2.70;1.83;;;27.30;92.60;;;;;;5050399;28;20496;-75
2022/07/09 09:17:16;;;;;;;2.83;2.00;;;26.80;93.10;;;;;;5041816;28;20862;-74
2022/07/09 09:19:44;;;;;;;3.97;1.60;;;26.50;94.60;;;;;;5045030;28;20592;-76
2022/07/09 09:22:11;;;;;;;5.13;2.00;;;26.70;93.80;;;;;;5037939;28;20435;-76
2022/07/09 09:24:38;;;;;;;1.73;1.57;;;27.10;93.40;;;;;;5045190;28;20465;-76
2022/07/09 09:27:05;;;;;;;2.07;1.40;;;27.70;92.10;;;;;;5046127;28;20450;-74
2022/07/09 09:29:33;;;;;;;4.97;2.37;;;27.20;91.70;;;;;;5037114;28;20526;-73
2022/07/09 09:32:10;;;;;;;2.97;1.77;;;26.60;92.50;;;;;;5048709;28;20508;-74
2022/07/09 09:34:37;;;;;;;2.10;1.33;;;26.80;93.20;;;;;;5042735;28;20916;-73
2022/07/09 09:37:05;;;;;;;1.83;1.30;;;27.20;91.50;;;;;;5040364;28;20505;-74
2022/07/09 09:39:32;;;;;;;3.90;1.70;;;27.60;91.00;;;;;;5040591;28;20486;-74
2022/07/09 09:42:01;;;;;;;3.90;1.40;;;28.30;90.50;;;;;;5045252;28;20457;-75
2022/07/09 09:44:31;;;;;;;2.23;1.70;;;29.10;88.90;;;;;;5044469;28;20502;-75
2022/07/09 09:46:59;;;;;;;2.00;1.50;;;29.40;86.60;;;;;;5046773;28;20446;-75
2022/07/09 09:49:27;;;;;;;2.70;1.67;;;29.70;84.00;;;;;;5046230;28;20445;-75
2022/07/09 09:52:01;;;;;;;3.07;1.40;;;29.10;84.90;;;;;;5038761;28;20914;-74
2022/07/09 09:54:28;;;;;;;2.90;1.90;;;28.50;86.20;;;;;;5060725;28;20502;-75
2022/07/09 09:57:07;;;;;;;3.93;1.63;;;27.80;88.50;;;;;;5053569;28;20892;-74
2022/07/09 09:59:37;;;;;;;2.20;1.63;;;27.90;88.00;;;;;;5044350;28;20450;-76
2022/07/09 10:02:06;;;;;;;1.93;1.50;;;27.80;89.20;;;;;;5047372;28;20464;-74
2022/07/09 10:04:37;;;;;;;2.97;1.50;;;27.40;88.90;;;;;;5044796;28;20464;-75
2022/07/09 10:07:06;;;;;;;1.77;1.20;;;27.30;89.50;;;;;;5046302;28;20471;-75
2022/07/09 10:09:33;;;;;;;1.77;1.37;;;27.40;89.60;;;;;;5043115;28;20454;-73
2022/07/09 10:12:00;;;;;;;2.97;2.00;;;27.50;88.30;;;;;;5038856;28;20489;-73
2022/07/09 10:14:32;;;;;;;4.90;1.57;;;27.30;87.50;;;;;;5043275;28;20474;-75
2022/07/09 10:17:12;;;;;;;2.80;1.07;;;27.20;87.60;;;;;;5042193;28;20488;-73
2022/07/09 10:19:52;;;;;;;4.90;1.40;;;26.70;88.30;;;;;;5049439;28;20826;-74
2022/07/09 10:22:19;;;;;;;1.97;0.90;;;26.30;90.00;;;;;;5047767;28;20434;-74
2022/07/09 10:24:47;;;;;;;2.40;1.50;;;25.80;90.60;;;;;;5047511;28;20541;-75
2022/07/09 10:27:14;;;;;;;6.07;2.10;;;25.30;91.30;;;;;;5036840;28;20446;-74
2022/07/09 10:29:54;;;;;;;13.90;3.20;;;24.80;95.40;;;;;;5038981;28;20561;-73
2022/07/09 10:32:26;;;;;;;7.53;2.83;;;23.80;99.90;;;;;;5052708;28;20486;-73
2022/07/09 10:34:59;;;;;;;11.87;4.27;;;22.80;99.90;;;;;;5056396;28;20810;-74
2022/07/09 10:37:34;;;;;;;12.13;3.60;;;21.60;99.90;;;;;;5043917;28;20444;-73
2022/07/09 10:40:13;;;;;;;7.53;4.00;;;21.00;99.90;;;;;;5045362;28;20637;-73
2022/07/09 10:42:41;;;;;;;8.77;3.60;;;20.50;99.90;;;;;;5051916;28;20935;-73
2022/07/09 10:45:22;;;;;;;5.80;3.80;;;20.30;99.90;;;;;;5049112;28;20449;-73
2022/07/09 10:47:53;;;;;;;9.33;5.50;;;20.30;99.90;;;;;;5041562;28;20451;-74
2022/07/09 10:50:22;;;;;;;8.67;3.67;;;20.40;99.90;;;;;;5051038;28;20529;-73
2022/07/09 10:52:50;;;;;;;8.60;4.60;;;20.50;99.90;;;;;;5049760;28;20542;-74
2022/07/09 10:55:18;;;;;;;8.57;4.20;;;20.80;99.90;;;;;;5060001;28;20462;-72
2022/07/09 10:57:46;;;;;;;7.10;3.90;;;21.30;99.90;;;;;;5050935;28;20465;-73
2022/07/09 11:00:16;;;;;;;8.97;3.93;;;21.60;99.90;;;;;;5049917;28;20958;-74
2022/07/09 11:02:58;;;;;;;3.33;2.63;;;21.80;99.90;;;;;;5044254;28;20480;-74
2022/07/09 11:05:28;;;;;;;6.03;3.10;;;22.50;99.90;;;;;;5052169;28;20474;-73
2022/07/09 11:07:58;;;;;;;5.67;3.37;;;23.00;99.90;;;;;;5054859;28;20512;-74
2022/07/09 11:10:27;;;;;;;3.50;2.63;;;23.30;99.90;;;;;;5054468;28;20533;-72
2022/07/09 11:12:54;;;;;;;8.03;3.37;;;23.50;99.90;;;;;;5047308;28;20521;-73
2022/07/09 11:15:23;;;;;;;3.53;2.57;;;23.60;99.90;;;;;;5043297;28;20467;-75
2022/07/09 11:17:57;;;;;;;2.97;1.90;;;23.60;99.90;;;;;;5051633;28;20549;-74
2022/07/09 11:20:26;;;;;;;2.80;2.13;;;23.80;99.90;;;;;;5056908;28;20555;-72
2022/07/09 11:22:56;;;;;;;3.67;2.30;;;24.20;99.90;;;;;;5058046;28;20473;-73
2022/07/09 11:25:25;;;;;;;6.53;2.73;;;24.30;99.90;;;;;;5052583;28;20482;-73
2022/07/09 11:27:52;;;;;;;5.13;2.50;;;24.40;99.90;;;;;;5050409;28;20526;-73
2022/07/09 11:30:19;;;;;;;4.73;3.30;;;24.40;99.90;;;;;;5053546;28;20760;-77
2022/07/09 11:32:46;;;;;;;5.33;2.63;;;24.40;99.90;;;;;;5055865;28;20493;-74
2022/07/09 11:35:24;;;;;;;4.77;2.27;;;24.80;99.90;;;;;;5047749;28;20446;-74
2022/07/09 11:37:52;;;;;;;3.63;2.27;;;25.10;99.90;;;;;;5053594;28;20437;-74
2022/07/09 11:40:29;;;;;;;4.93;2.00;;;25.20;99.90;;;;;;5040927;28;20454;-75
2022/07/09 11:42:56;;;;;;;5.43;1.87;;;25.00;99.90;;;;;;5055980;28;20479;-74
2022/07/09 11:45:25;;;;;;;3.07;2.07;;;25.00;99.90;;;;;;5057928;28;20446;-74
2022/07/09 11:48:07;;;;;;;7.97;2.20;;;24.50;99.90;;;;;;5058018;28;20479;-76
2022/07/09 11:50:42;;;;;;;5.20;2.30;;;24.00;99.90;;;;;;5042281;28;20521;-75
2022/07/09 11:53:20;;;;;;;4.00;2.40;;;23.70;99.90;;;;;;5051819;28;20560;-76
2022/07/09 11:55:59;;;;;;;2.37;2.17;;;23.40;99.90;;;;;;5048164;28;20466;-76
2022/07/09 11:58:26;;;;;;;4.90;2.33;;;23.10;99.90;;;;;;5044376;28;20482;-74
2022/07/09 12:00:53;;;;;;;5.00;2.20;;;23.10;99.90;;;;;;5046734;28;20482;-74
2022/07/09 12:03:25;;;;;;;3.20;2.27;;;23.10;99.90;;;;;;5048010;28;20466;-75
2022/07/09 12:05:52;;;;;;;4.37;2.60;;;23.20;99.90;;;;;;5040271;28;20505;-76
2022/07/09 12:08:29;;;;;;;3.63;2.40;;;23.30;99.90;;;;;;5043945;28;20447;-76
2022/07/09 12:10:57;;;;;;;4.23;2.10;;;22.80;99.90;;;;;;5050375;28;20942;-76
2022/07/09 12:13:25;;;;;;;4.40;1.60;;;22.90;99.90;;;;;;5036418;28;20564;-76
2022/07/09 12:15:51;;;;;;;4.47;2.20;;;23.10;99.90;;;;;;5039311;28;20461;-75
2022/07/09 12:18:19;;;;;;;5.53;3.67;;;23.10;99.90;;;;;;5052185;28;20992;-76
2022/07/09 12:20:46;;;;;;;4.67;2.10;;;22.90;99.90;;;;;;5053446;28;20499;-75
2022/07/09 12:23:13;;;;;;;4.77;2.10;;;22.70;99.90;;;;;;5041529;28;21003;-76
2022/07/09 12:25:42;;;;;;;3.40;2.10;;;22.80;99.90;;;;;;5040766;28;20461;-75
2022/07/09 12:28:09;;;;;;;2.90;2.03;;;23.00;99.90;;;;;;5051865;28;20450;-75
2022/07/09 12:30:36;;;;;;;4.13;2.00;;;23.20;99.90;;;;;;5044804;28;20435;-74
2022/07/09 12:33:02;;;;;;;5.90;2.77;;;23.50;99.90;;;;;;5047986;28;20568;-74
2022/07/09 12:35:29;;;;;;;3.63;2.07;;;23.60;99.90;;;;;;5043376;28;20525;-73
2022/07/09 12:37:57;;;;;;;2.40;1.43;;;23.60;99.90;;;;;;5042216;28;20464;-75
2022/07/09 12:40:24;;;;;;;5.20;3.00;;;23.40;99.90;;;;;;5046477;28;20841;-74
2022/07/09 12:42:52;;;;;;;7.13;2.60;;;23.50;99.90;;;;;;5043996;28;20521;-73
2022/07/09 12:45:19;;;;;;;8.20;2.20;;;23.20;99.90;;;;;;5051807;28;20538;-75
2022/07/09 12:47:47;;;;;;;4.67;2.00;;;23.00;99.90;;;;;;5050142;28;20541;-74
2022/07/09 12:50:14;;;;;;;3.13;1.60;;;22.90;99.90;;;;;;5046058;28;20497;-74
2022/07/09 12:52:40;;;;;;;4.40;2.83;;;22.80;99.90;;;;;;5049509;28;20568;-74